To NAV CANADA Home Page Login to a new session Search on AWWS site Feedback and Comments Disclaimer Vers la page française équivalente Tips FAQ What's new on the site To the Forecasts and Observations / NOTAM section To "File a Flight Plan" website Publications and other links Update of the User's profile FIC Telephone Numbers My Weather Data Folder Route Weather Data Regional Weather Data Local Weather Data To the Forecasts and Observations / NOTAM section
Request Generated 08/25/2016 at 04:23:50 UTC . Weather information available at that time is displayed.

METAR/TAF

MONTREAL/ST-HUBERT/QC    (show WxCam)

METAR CYHU 250400Z AUTO 17009KT 9SM CLR 22/18 A2998 RMK SLP153
DENSITY ALT 800FT=
METAR CYHU 250300Z AUTO 19009KT 9SM CLR 23/19 A2999 RMK SLP158
DENSITY ALT 900FT=
METAR CYHU 250200Z AUTO 19006KT 9SM CLR 24/19 A3000 RMK SLP159
DENSITY ALT 1000FT=

TAF CYHU 242338Z 2500/2524 18007KT P6SM BKN220
FM251200 22010G20KT P6SM BKN060
FM251500 23015G25KT P6SM OVC040 TEMPO 2515/2519 P6SM -SHRA OVC030
FM251900 23015G25KT P6SM BKN040
FM252100 24012G22KT P6SM BKN050
RMK FCST BASED ON AUTO OBS. NXT FCST BY 250600Z=
Your time UTC time
Weather data provided by Environment Canada and NAV CANADA